createdAt,value
2022-11-10T00:00:22.649Z,2.10
2022-11-10T00:01:22.682Z,1.70
2022-11-10T00:02:22.872Z,2.00
2022-11-10T00:03:22.787Z,1.90
2022-11-10T00:04:22.531Z,2.10
2022-11-10T00:05:23.145Z,1.90
2022-11-10T00:06:22.466Z,1.60
2022-11-10T00:07:23.011Z,2.50
2022-11-10T00:08:22.987Z,2.40
2022-11-10T00:09:22.430Z,1.80
2022-11-10T00:10:22.363Z,2.00
2022-11-10T00:11:22.422Z,2.30
2022-11-10T00:12:22.383Z,2.00
2022-11-10T00:13:23.283Z,1.70
2022-11-10T00:14:22.498Z,2.20
2022-11-10T00:15:22.366Z,1.80
2022-11-10T00:16:22.354Z,2.10
2022-11-10T00:17:22.303Z,1.90
2022-11-10T00:18:22.387Z,1.80
2022-11-10T00:19:22.421Z,2.10
2022-11-10T00:20:22.250Z,1.90
2022-11-10T00:21:22.248Z,1.90
2022-11-10T00:22:25.921Z,2.00
2022-11-10T00:23:23.506Z,2.30
2022-11-10T00:24:22.969Z,2.10
2022-11-10T00:25:22.316Z,2.50
2022-11-10T00:26:22.366Z,2.30
2022-11-10T00:27:22.185Z,2.30
2022-11-10T00:28:22.192Z,3.00
2022-11-10T00:29:22.282Z,2.80
2022-11-10T00:30:22.998Z,2.90
2022-11-10T00:31:22.118Z,2.80
2022-11-10T00:32:22.217Z,3.10
2022-11-10T00:33:22.437Z,3.00
2022-11-10T00:34:22.220Z,2.70
2022-11-10T00:35:22.078Z,3.30
2022-11-10T00:36:22.104Z,2.80
2022-11-10T00:37:22.033Z,2.70
2022-11-10T00:38:22.112Z,3.00
2022-11-10T00:39:22.062Z,3.10
2022-11-10T00:40:22.612Z,2.80
2022-11-10T00:41:22.047Z,3.10
2022-11-10T00:42:22.145Z,2.90
2022-11-10T00:43:26.330Z,3.10
2022-11-10T00:44:22.033Z,2.70
2022-11-10T00:45:22.038Z,2.70
2022-11-10T00:46:22.058Z,2.80
2022-11-10T00:47:22.395Z,2.80
2022-11-10T00:48:21.906Z,2.70
2022-11-10T00:49:21.932Z,2.80
2022-11-10T00:50:22.612Z,2.50
2022-11-10T00:51:22.937Z,2.50
2022-11-10T00:52:21.993Z,2.70
2022-11-10T00:53:23.556Z,2.40
2022-11-10T00:54:21.821Z,2.50
2022-11-10T00:55:22.710Z,2.20
2022-11-10T00:56:21.886Z,1.90
2022-11-10T00:57:21.924Z,2.20
2022-11-10T00:58:21.841Z,1.90
2022-11-10T00:59:21.950Z,1.90
2022-11-10T01:00:22.745Z,1.50
2022-11-10T01:01:21.822Z,1.50
2022-11-10T01:02:21.755Z,1.20
2022-11-10T01:03:22.127Z,1.50
2022-11-10T01:04:21.682Z,1.60
2022-11-10T01:05:21.734Z,1.40
2022-11-10T01:06:21.810Z,1.30
2022-11-10T01:07:21.728Z,1.30
2022-11-10T01:08:21.610Z,1.20
2022-11-10T01:09:21.660Z,1.20
2022-11-10T01:10:21.821Z,1.50
2022-11-10T01:11:22.492Z,1.20
2022-11-10T01:12:21.605Z,1.00
2022-11-10T01:13:22.002Z,1.10
2022-11-10T01:14:21.558Z,1.60
2022-11-10T01:15:27.258Z,1.70
2022-11-10T01:16:21.691Z,1.20
2022-11-10T01:17:21.587Z,1.10
2022-11-10T01:18:21.632Z,1.00
2022-11-10T01:19:21.542Z,1.00
2022-11-10T01:20:21.676Z,1.90
2022-11-10T01:21:21.693Z,1.50
2022-11-10T01:22:21.482Z,1.10
2022-11-10T01:23:21.784Z,1.80
2022-11-10T01:24:21.438Z,1.40
2022-11-10T01:25:21.452Z,1.30
2022-11-10T01:26:22.100Z,1.30
2022-11-10T01:27:21.653Z,1.30
2022-11-10T01:28:21.379Z,1.10
2022-11-10T01:29:21.399Z,1.20
2022-11-10T01:30:21.499Z,1.10
2022-11-10T01:31:21.509Z,1.60
2022-11-10T01:32:21.480Z,1.30
2022-11-10T01:33:21.680Z,1.00
2022-11-10T01:34:21.327Z,1.30
2022-11-10T01:35:21.405Z,1.90
2022-11-10T01:36:21.343Z,1.00
2022-11-10T01:37:21.409Z,1.20
2022-11-10T01:38:21.411Z,1.30
2022-11-10T01:39:21.338Z,1.30
2022-11-10T01:40:21.487Z,1.30
2022-11-10T01:41:21.383Z,1.30
2022-11-10T01:42:21.285Z,1.40
2022-11-10T01:43:21.517Z,1.30
2022-11-10T01:44:21.190Z,1.40
2022-11-10T01:45:21.218Z,1.50
2022-11-10T01:46:21.187Z,1.50
2022-11-10T01:47:21.212Z,1.40
2022-11-10T01:48:21.260Z,2.00
2022-11-10T01:49:21.156Z,1.80
2022-11-10T01:50:21.159Z,1.80
2022-11-10T01:51:21.228Z,1.70
2022-11-10T01:52:21.223Z,2.10
2022-11-10T01:53:21.608Z,2.00
2022-11-10T01:54:21.114Z,2.30
2022-11-10T01:55:21.085Z,2.40
2022-11-10T01:56:25.011Z,2.10
2022-11-10T01:57:21.104Z,2.20
2022-11-10T01:58:21.096Z,2.20
2022-11-10T01:59:21.131Z,2.50
2022-11-10T02:00:21.072Z,2.30
2022-11-10T02:01:21.037Z,2.30
2022-11-10T02:02:21.074Z,2.50
2022-11-10T02:03:21.300Z,2.40
2022-11-10T02:04:20.953Z,3.20
2022-11-10T02:05:20.977Z,2.80
2022-11-10T02:06:20.936Z,2.80
2022-11-10T02:07:20.915Z,2.70
2022-11-10T02:08:21.556Z,2.90
2022-11-10T02:09:20.995Z,3.70
2022-11-10T02:10:20.975Z,3.70
2022-11-10T02:11:20.895Z,3.90
2022-11-10T02:12:20.862Z,3.90
2022-11-10T02:13:21.225Z,3.90
2022-11-10T02:14:20.971Z,3.70
2022-11-10T02:15:20.870Z,3.70
2022-11-10T02:16:20.900Z,4.10
2022-11-10T02:17:20.824Z,3.60
2022-11-10T02:18:23.856Z,3.50
2022-11-10T02:19:20.804Z,3.80
2022-11-10T02:20:20.889Z,3.40
2022-11-10T02:21:20.756Z,3.80
2022-11-10T02:22:20.756Z,3.80
2022-11-10T02:23:21.164Z,4.30
2022-11-10T02:24:20.869Z,4.00
2022-11-10T02:25:20.749Z,4.20
2022-11-10T02:26:20.719Z,3.80
2022-11-10T02:27:20.700Z,4.00
2022-11-10T02:28:22.641Z,4.10
2022-11-10T02:29:20.728Z,4.40
2022-11-10T02:30:25.166Z,4.20
2022-11-10T02:31:20.689Z,4.00
2022-11-10T02:32:20.652Z,4.50
2022-11-10T02:33:21.183Z,4.20
2022-11-10T02:34:20.720Z,4.40
2022-11-10T02:35:20.628Z,4.30
2022-11-10T02:36:20.653Z,4.10
2022-11-10T02:37:20.578Z,4.10
2022-11-10T02:38:20.590Z,4.50
2022-11-10T02:39:20.617Z,4.40
2022-11-10T02:40:20.596Z,4.90
2022-11-10T02:41:20.732Z,4.80
2022-11-10T02:42:20.543Z,5.10
2022-11-10T02:43:20.877Z,4.70
2022-11-10T02:44:20.531Z,5.10
2022-11-10T02:45:20.640Z,4.80
2022-11-10T02:46:20.631Z,4.60
2022-11-10T02:47:20.477Z,5.00
2022-11-10T02:48:20.452Z,4.80
2022-11-10T02:49:20.487Z,4.60
2022-11-10T02:50:20.505Z,4.70
2022-11-10T02:51:20.492Z,4.80
2022-11-10T02:52:20.428Z,5.20
2022-11-10T02:53:20.762Z,5.10
2022-11-10T02:54:20.426Z,5.10
2022-11-10T02:55:20.535Z,5.20
2022-11-10T02:56:20.501Z,5.20
2022-11-10T02:57:20.389Z,5.40
2022-11-10T02:58:20.335Z,5.40
2022-11-10T02:59:20.339Z,5.20
2022-11-10T03:00:20.401Z,5.60
2022-11-10T03:01:22.096Z,5.40
2022-11-10T03:02:20.344Z,5.60
2022-11-10T03:03:20.580Z,5.70
2022-11-10T03:04:20.304Z,5.60
2022-11-10T03:05:20.273Z,5.60
2022-11-10T03:06:20.265Z,6.20
2022-11-10T03:07:20.288Z,5.80
2022-11-10T03:08:20.241Z,6.00
2022-11-10T03:09:20.290Z,6.50
2022-11-10T03:10:20.326Z,6.40
2022-11-10T03:11:20.985Z,6.10
2022-11-10T03:12:20.175Z,6.60
2022-11-10T03:13:20.490Z,7.30
2022-11-10T03:14:20.244Z,7.30
2022-11-10T03:15:20.296Z,7.40
2022-11-10T03:16:20.181Z,7.70
2022-11-10T03:17:20.178Z,8.50
2022-11-10T03:18:20.117Z,8.40
2022-11-10T03:19:20.149Z,8.00
2022-11-10T03:20:20.212Z,9.20
2022-11-10T03:21:21.288Z,8.80
2022-11-10T03:22:20.209Z,9.10
2022-11-10T03:23:20.389Z,9.30
2022-11-10T03:24:20.098Z,9.60
2022-11-10T03:25:20.212Z,9.40
2022-11-10T03:26:20.302Z,9.20
2022-11-10T03:27:20.039Z,10.10
2022-11-10T03:28:20.014Z,9.60
2022-11-10T03:29:19.995Z,9.60
2022-11-10T03:30:20.068Z,10.00
2022-11-10T03:31:20.053Z,9.90
2022-11-10T03:32:20.139Z,10.20
2022-11-10T03:33:20.387Z,10.40
2022-11-10T03:34:19.940Z,10.80
2022-11-10T03:35:19.998Z,10.40
2022-11-10T03:36:20.025Z,10.80
2022-11-10T03:37:19.893Z,11.20
2022-11-10T03:38:19.896Z,10.40
2022-11-10T03:39:19.875Z,10.00
2022-11-10T03:40:19.866Z,10.80
2022-11-10T03:41:20.856Z,11.20
2022-11-10T03:42:19.916Z,10.80
2022-11-10T03:43:20.279Z,11.60
2022-11-10T03:44:20.628Z,12.30
2022-11-10T03:45:19.865Z,11.80
2022-11-10T03:46:19.856Z,11.60
2022-11-10T03:47:19.807Z,12.10
2022-11-10T03:48:19.771Z,12.20
2022-11-10T03:49:19.812Z,11.40
2022-11-10T03:50:19.756Z,12.80
2022-11-10T03:51:19.740Z,11.50
2022-11-10T03:52:21.571Z,12.80
2022-11-10T03:53:20.115Z,12.10
2022-11-10T03:54:19.861Z,12.20
2022-11-10T03:55:19.695Z,11.70
2022-11-10T03:56:19.731Z,12.20
2022-11-10T03:57:19.714Z,13.40
2022-11-10T03:58:19.814Z,12.20
2022-11-10T03:59:19.663Z,12.90
2022-11-10T04:00:19.673Z,13.20
2022-11-10T04:01:19.800Z,13.70
2022-11-10T04:02:20.348Z,13.90
2022-11-10T04:03:20.175Z,13.40
2022-11-10T04:04:19.585Z,13.90
2022-11-10T04:05:19.578Z,13.00
2022-11-10T04:06:19.689Z,13.20
2022-11-10T04:07:19.744Z,13.40
2022-11-10T04:08:19.569Z,13.80
2022-11-10T04:09:19.536Z,14.20
2022-11-10T04:10:19.522Z,13.20
2022-11-10T04:11:19.494Z,14.70
2022-11-10T04:12:24.584Z,13.20
2022-11-10T04:13:19.855Z,12.80
2022-11-10T04:14:19.515Z,13.30
2022-11-10T04:15:19.527Z,13.20
2022-11-10T04:16:19.482Z,14.10
2022-11-10T04:17:19.540Z,13.60
2022-11-10T04:18:19.535Z,14.10
2022-11-10T04:19:19.418Z,14.50
2022-11-10T04:20:19.411Z,12.30
2022-11-10T04:21:19.397Z,14.30
2022-11-10T04:22:19.378Z,12.90
2022-11-10T04:23:19.899Z,12.90
2022-11-10T04:24:19.396Z,14.20
2022-11-10T04:25:19.432Z,14.00
2022-11-10T04:26:19.344Z,13.50
2022-11-10T04:27:19.365Z,13.40
2022-11-10T04:28:19.418Z,13.30
2022-11-10T04:29:19.371Z,13.80
2022-11-10T04:30:19.408Z,13.40
2022-11-10T04:31:19.277Z,14.90
2022-11-10T04:32:19.282Z,14.20
2022-11-10T04:33:19.636Z,14.10
2022-11-10T04:34:19.304Z,14.40
2022-11-10T04:35:19.301Z,14.50
2022-11-10T04:36:19.287Z,14.60
2022-11-10T04:37:19.207Z,15.20
2022-11-10T04:38:19.313Z,15.40
2022-11-10T04:39:19.218Z,14.10
2022-11-10T04:40:19.313Z,14.40
2022-11-10T04:41:19.252Z,15.60
2022-11-10T04:42:19.176Z,15.30
2022-11-10T04:43:19.238Z,15.40
2022-11-10T04:44:19.224Z,15.80
2022-11-10T04:45:19.134Z,15.40
2022-11-10T04:46:20.121Z,14.80
2022-11-10T04:47:19.177Z,15.30
2022-11-10T04:48:19.221Z,15.30
2022-11-10T04:49:19.234Z,16.70
2022-11-10T04:50:19.118Z,16.20
2022-11-10T04:51:19.186Z,15.80
2022-11-10T04:52:19.196Z,14.70
2022-11-10T04:53:19.476Z,14.70
2022-11-10T04:54:19.176Z,15.20
2022-11-10T04:55:19.010Z,15.50
2022-11-10T04:56:18.999Z,14.90
2022-11-10T04:57:18.990Z,15.20
2022-11-10T04:58:19.070Z,15.00
2022-11-10T04:59:19.048Z,15.30
2022-11-10T05:00:18.975Z,14.80
2022-11-10T05:01:19.008Z,15.00
2022-11-10T05:02:18.972Z,15.30
2022-11-10T05:03:20.429Z,15.50
2022-11-10T05:04:18.969Z,15.80
2022-11-10T05:05:18.892Z,14.70
2022-11-10T05:06:18.894Z,15.20
2022-11-10T05:07:18.872Z,14.50
2022-11-10T05:08:18.884Z,15.40
2022-11-10T05:09:18.993Z,14.90
2022-11-10T05:10:18.960Z,15.20
2022-11-10T05:11:18.939Z,14.40
2022-11-10T05:12:22.346Z,14.90
2022-11-10T05:13:19.705Z,13.70
2022-11-10T05:14:18.892Z,14.20
2022-11-10T05:15:19.016Z,13.40
2022-11-10T05:16:18.876Z,13.40
2022-11-10T05:17:18.774Z,14.20
2022-11-10T05:18:18.749Z,13.80
2022-11-10T05:19:18.756Z,13.60
2022-11-10T05:20:18.744Z,13.60
2022-11-10T05:21:18.802Z,13.50
2022-11-10T05:22:18.747Z,13.90
2022-11-10T05:23:18.940Z,13.30
2022-11-10T05:24:18.677Z,13.00
2022-11-10T05:25:18.687Z,13.50
2022-11-10T05:26:18.746Z,13.60
2022-11-10T05:27:18.764Z,13.90
2022-11-10T05:28:18.756Z,12.80
2022-11-10T05:29:18.619Z,13.70
2022-11-10T05:30:18.608Z,13.30
2022-11-10T05:31:18.625Z,13.40
2022-11-10T05:32:18.640Z,13.30
2022-11-10T05:33:19.042Z,13.40
2022-11-10T05:34:18.592Z,12.40
2022-11-10T05:35:18.566Z,12.50
2022-11-10T05:36:19.689Z,12.70
2022-11-10T05:37:18.644Z,13.60
2022-11-10T05:38:18.611Z,13.10
2022-11-10T05:39:18.509Z,14.30
2022-11-10T05:40:18.495Z,12.90
2022-11-10T05:42:37.762Z,12.70
2022-11-10T05:43:38.752Z,12.30
2022-11-10T05:44:38.757Z,11.90
2022-11-10T05:45:38.763Z,12.50
2022-11-10T05:46:38.826Z,12.30
2022-11-10T05:47:38.749Z,12.50
2022-11-10T05:48:38.835Z,12.50
2022-11-10T05:49:38.661Z,12.00
2022-11-10T05:50:38.712Z,12.30
2022-11-10T05:51:38.741Z,11.40
2022-11-10T05:52:38.781Z,11.70
2022-11-10T05:53:38.801Z,11.50
2022-11-10T05:54:38.619Z,11.30
2022-11-10T05:55:39.372Z,11.30
2022-11-10T05:56:38.610Z,11.00
2022-11-10T05:57:38.614Z,11.40
2022-11-10T05:58:38.609Z,11.10
2022-11-10T05:59:38.647Z,11.30
2022-11-10T06:00:38.569Z,11.60
2022-11-10T06:01:38.580Z,11.40
2022-11-10T06:02:38.669Z,11.60
2022-11-10T06:03:38.675Z,11.50
2022-11-10T06:04:38.614Z,11.60
2022-11-10T06:05:38.492Z,11.50
2022-11-10T06:06:38.572Z,10.90
2022-11-10T06:07:38.468Z,10.80
2022-11-10T06:08:38.510Z,11.60
2022-11-10T06:09:38.549Z,10.60
2022-11-10T06:10:38.551Z,10.80
2022-11-10T06:11:38.414Z,11.20
2022-11-10T06:12:38.423Z,11.30
2022-11-10T06:13:38.449Z,10.40
2022-11-10T06:14:38.510Z,12.00
2022-11-10T06:15:38.367Z,11.20
2022-11-10T06:16:38.364Z,11.30
2022-11-10T06:17:38.430Z,10.80
2022-11-10T06:18:38.385Z,11.30
2022-11-10T06:19:38.362Z,10.60
2022-11-10T06:20:38.948Z,11.60
2022-11-10T06:21:38.372Z,11.60
2022-11-10T06:22:38.334Z,11.10
2022-11-10T06:23:38.321Z,12.20
2022-11-10T06:24:38.387Z,12.50
2022-11-10T06:25:38.295Z,11.40
2022-11-10T06:26:38.400Z,11.40
2022-11-10T06:27:38.297Z,12.00
2022-11-10T06:31:04.376Z,11.20
2022-11-10T06:32:05.353Z,12.10
2022-11-10T06:33:05.408Z,11.50
2022-11-10T06:34:05.432Z,11.50
2022-11-10T06:35:05.511Z,12.00
2022-11-10T06:36:05.979Z,11.60
2022-11-10T06:37:05.344Z,11.90
2022-11-10T06:38:05.384Z,12.30
2022-11-10T06:39:05.744Z,11.90
2022-11-10T06:40:06.087Z,11.90
2022-11-10T07:11:10.025Z,14.70
2022-11-10T07:12:10.917Z,14.40
2022-11-10T07:13:10.902Z,14.70
2022-11-10T07:14:10.980Z,14.30
2022-11-10T07:15:10.956Z,14.10
2022-11-10T07:16:10.816Z,14.70
2022-11-10T07:17:10.949Z,14.70
2022-11-10T07:18:10.801Z,14.10
2022-11-10T07:19:10.834Z,14.00
2022-11-10T07:20:10.776Z,14.70
2022-11-10T07:21:10.996Z,14.40
2022-11-10T07:22:11.531Z,14.60
2022-11-10T07:23:10.722Z,14.70
2022-11-10T07:24:10.755Z,14.70
2022-11-10T07:25:10.855Z,14.80
2022-11-10T07:26:10.892Z,14.50
2022-11-10T07:27:11.873Z,14.40
2022-11-10T07:28:10.722Z,14.90
2022-11-10T07:29:10.673Z,14.30
2022-11-10T07:30:10.715Z,14.20
2022-11-10T07:31:11.636Z,14.40
2022-11-10T07:32:10.868Z,14.00
2022-11-10T07:33:10.784Z,14.00
2022-11-10T07:34:10.792Z,14.10
2022-11-10T07:36:31.875Z,14.10
2022-11-10T07:37:32.661Z,13.60
2022-11-10T07:38:32.670Z,13.20
2022-11-10T07:39:33.144Z,14.10
2022-11-10T07:40:32.711Z,13.60
2022-11-10T07:41:34.398Z,14.50
2022-11-10T07:42:32.716Z,13.60
2022-11-10T07:43:32.771Z,14.00
2022-11-10T07:44:32.773Z,13.40
2022-11-10T07:45:32.638Z,13.70
2022-11-10T07:46:32.661Z,13.60
2022-11-10T07:47:32.747Z,13.70
2022-11-10T07:48:32.751Z,13.30
2022-11-10T07:49:32.773Z,13.10
2022-11-10T07:50:32.855Z,13.70
2022-11-10T07:51:32.576Z,13.30
2022-11-10T07:52:32.632Z,11.80
2022-11-10T07:53:32.614Z,13.00
2022-11-10T07:54:32.629Z,11.90
2022-11-10T07:55:37.393Z,11.60
2022-11-10T07:56:32.536Z,11.90
2022-11-10T07:57:32.676Z,11.70
2022-11-10T07:58:32.619Z,11.30
2022-11-10T07:59:32.417Z,11.30
2022-11-10T08:00:32.407Z,11.20
2022-11-10T08:01:32.472Z,11.70
2022-11-10T08:02:32.400Z,10.90
2022-11-10T08:03:34.309Z,11.10
2022-11-10T08:04:32.419Z,11.60
2022-11-10T08:05:32.457Z,11.10
2022-11-10T08:06:36.127Z,10.30
2022-11-10T08:07:32.540Z,10.50
2022-11-10T08:08:32.401Z,11.30
2022-11-10T08:09:32.418Z,11.00
2022-11-10T08:10:32.394Z,10.60
2022-11-10T08:11:33.228Z,10.60
2022-11-10T08:12:33.783Z,10.00
2022-11-10T08:13:32.274Z,9.90
2022-11-10T08:14:33.358Z,10.10
2022-11-10T08:15:33.816Z,9.80
2022-11-10T08:16:32.351Z,10.50
2022-11-10T08:17:32.247Z,9.80
2022-11-10T08:18:35.235Z,10.30
2022-11-10T08:19:32.233Z,10.10
2022-11-10T08:20:32.772Z,9.50
2022-11-10T08:21:32.268Z,9.30
2022-11-10T08:22:33.286Z,9.40
2022-11-10T08:23:32.176Z,9.30
2022-11-10T08:24:32.139Z,9.00
2022-11-10T08:25:35.127Z,9.20
2022-11-10T08:26:32.219Z,8.70
2022-11-10T08:27:32.202Z,9.00
2022-11-10T08:28:32.150Z,8.40
2022-11-10T08:29:32.278Z,9.20
2022-11-10T08:30:32.169Z,8.30
2022-11-10T08:31:33.170Z,8.50
2022-11-10T08:32:32.203Z,8.70
2022-11-10T08:33:32.150Z,7.50
2022-11-10T08:34:32.038Z,7.60
2022-11-10T08:35:32.095Z,8.00
2022-11-10T08:36:32.834Z,7.60
2022-11-10T08:37:32.255Z,7.30
2022-11-10T08:38:32.223Z,7.20
2022-11-10T08:39:39.140Z,7.30
2022-11-10T08:40:31.956Z,7.60
2022-11-10T08:41:32.301Z,7.20
2022-11-10T08:42:32.060Z,7.30
2022-11-10T08:43:32.778Z,7.40
2022-11-10T08:44:32.057Z,6.70
2022-11-10T08:45:31.946Z,7.10
2022-11-10T08:46:31.959Z,6.80
2022-11-10T08:47:31.963Z,6.40
2022-11-10T08:48:32.731Z,7.70
2022-11-10T08:49:32.150Z,8.20
2022-11-10T08:50:31.842Z,7.10
2022-11-10T08:51:37.807Z,7.10
2022-11-10T08:52:31.886Z,7.50
2022-11-10T08:53:32.778Z,7.10
2022-11-10T08:54:31.886Z,7.10
2022-11-10T08:55:31.878Z,5.50
2022-11-10T08:56:31.787Z,6.40
2022-11-10T08:57:32.142Z,6.30
2022-11-10T08:58:31.801Z,6.70
2022-11-10T08:59:31.831Z,7.50
2022-11-10T09:00:31.731Z,6.60
2022-11-10T09:01:31.703Z,6.60
2022-11-10T09:02:31.739Z,6.50
2022-11-10T09:03:31.708Z,6.50
2022-11-10T09:04:32.891Z,6.60
2022-11-10T09:05:31.778Z,6.10
2022-11-10T09:06:31.752Z,6.80
2022-11-10T09:07:32.605Z,5.80
2022-11-10T09:08:31.697Z,6.10
2022-11-10T09:09:32.376Z,6.40
2022-11-10T09:10:31.737Z,6.00
2022-11-10T09:11:31.620Z,6.00
2022-11-10T09:12:31.711Z,6.10
2022-11-10T09:13:31.912Z,6.60
2022-11-10T09:14:31.571Z,5.10
2022-11-10T09:15:31.666Z,6.10
2022-11-10T09:16:31.590Z,5.50
2022-11-10T09:17:31.765Z,5.40
2022-11-10T09:18:31.694Z,6.40
2022-11-10T09:19:31.568Z,6.10
2022-11-10T09:20:31.580Z,7.10
2022-11-10T09:21:32.280Z,6.10
2022-11-10T09:22:31.756Z,5.80
2022-11-10T09:23:31.484Z,6.40
2022-11-10T09:24:31.742Z,6.30
2022-11-10T09:25:31.528Z,6.30
2022-11-10T09:26:31.474Z,6.00
2022-11-10T09:27:31.542Z,6.60
2022-11-10T09:28:31.481Z,6.00
2022-11-10T09:29:31.410Z,7.10
2022-11-10T09:30:31.380Z,7.30
2022-11-10T09:31:33.344Z,6.60
2022-11-10T09:32:31.447Z,7.50
2022-11-10T09:33:31.539Z,7.30
2022-11-10T09:34:31.340Z,7.00
2022-11-10T09:35:31.338Z,7.60
2022-11-10T09:36:32.347Z,6.70
2022-11-10T09:37:32.186Z,6.50
2022-11-10T09:38:31.332Z,6.40
2022-11-10T09:39:31.296Z,6.80
2022-11-10T09:40:31.261Z,7.20
2022-11-10T09:41:31.276Z,7.90
2022-11-10T09:42:31.316Z,7.30
2022-11-10T09:43:31.386Z,7.10
2022-11-10T09:44:31.413Z,7.40
2022-11-10T09:45:36.408Z,6.60
2022-11-10T09:46:31.294Z,7.20
2022-11-10T09:48:31.282Z,7.90
2022-11-10T09:49:31.377Z,7.50
2022-11-10T09:50:31.319Z,7.70
2022-11-10T09:51:31.174Z,6.80
2022-11-10T09:52:31.240Z,7.70
2022-11-10T09:53:32.223Z,7.70
2022-11-10T09:54:31.342Z,7.20
2022-11-10T09:55:31.219Z,7.80
2022-11-10T09:56:33.471Z,7.40
2022-11-10T09:57:31.761Z,7.60
2022-11-10T09:58:31.182Z,7.40
2022-11-10T09:59:31.249Z,6.80
2022-11-10T10:00:31.751Z,6.80
2022-11-10T10:01:31.900Z,7.60
2022-11-10T10:02:31.028Z,7.20
2022-11-10T10:03:31.238Z,7.50
2022-11-10T10:04:31.034Z,7.10
2022-11-10T10:05:31.717Z,7.10
2022-11-10T10:06:49.884Z,7.80
2022-11-10T10:07:31.089Z,7.40
2022-11-10T10:08:31.776Z,7.50
2022-11-10T10:09:32.275Z,7.10
2022-11-10T10:10:30.937Z,7.30
2022-11-10T10:11:31.075Z,8.00
2022-11-10T10:12:30.996Z,7.80
2022-11-10T10:13:30.922Z,7.90
2022-11-10T10:14:30.893Z,7.50
2022-11-10T10:15:30.870Z,7.70
2022-11-10T10:16:30.907Z,7.10
2022-11-10T10:17:30.893Z,7.90
2022-11-10T10:18:30.938Z,6.90
2022-11-10T10:19:30.910Z,6.80
2022-11-10T10:20:30.827Z,7.10
2022-11-10T10:21:31.121Z,6.60
2022-11-10T10:22:30.838Z,6.70
2022-11-10T10:23:54.460Z,7.40
2022-11-10T10:24:31.095Z,7.40
2022-11-10T10:25:30.890Z,7.20
2022-11-10T10:26:30.748Z,7.30
2022-11-10T10:27:30.778Z,7.50
2022-11-10T10:28:31.574Z,8.00
2022-11-10T10:29:36.911Z,7.10
2022-11-10T10:30:30.700Z,7.20
2022-11-10T10:31:30.737Z,7.30
2022-11-10T10:32:31.253Z,6.90
2022-11-10T10:33:31.757Z,6.70
2022-11-10T10:34:30.750Z,6.50
2022-11-10T10:35:30.669Z,6.10
2022-11-10T10:36:30.674Z,6.10
2022-11-10T10:37:30.624Z,5.50
2022-11-10T10:38:30.691Z,6.80
2022-11-10T10:39:30.664Z,6.40
2022-11-10T10:40:30.962Z,6.80
2022-11-10T10:41:30.663Z,6.20
2022-11-10T10:42:30.678Z,6.80
2022-11-10T10:43:30.636Z,7.00
2022-11-10T10:44:31.259Z,6.70
2022-11-10T10:45:31.303Z,6.00
2022-11-10T10:46:35.519Z,6.30
2022-11-10T10:47:30.607Z,6.30
2022-11-10T10:48:30.520Z,6.80
2022-11-10T10:49:31.217Z,7.10
2022-11-10T10:50:30.649Z,6.50
2022-11-10T10:51:30.656Z,7.30
2022-11-10T10:52:30.562Z,7.30
2022-11-10T10:53:30.505Z,6.60
2022-11-10T10:54:30.511Z,5.90
2022-11-10T10:55:30.564Z,6.50
2022-11-10T10:56:30.532Z,5.80
2022-11-10T10:57:30.564Z,6.80
2022-11-10T10:58:30.594Z,6.20
2022-11-10T10:59:30.404Z,5.20
2022-11-10T11:00:30.401Z,5.70
2022-11-10T11:01:30.426Z,5.40
2022-11-10T11:02:30.395Z,5.70
2022-11-10T11:03:31.270Z,5.80
2022-11-10T11:04:30.448Z,5.60
2022-11-10T11:05:30.329Z,4.90
2022-11-10T11:06:30.432Z,5.30
2022-11-10T11:07:30.366Z,5.10
2022-11-10T11:08:30.407Z,5.80
2022-11-10T11:09:30.470Z,4.80
2022-11-10T11:10:31.167Z,4.90
2022-11-10T11:11:30.271Z,4.50
2022-11-10T11:12:33.193Z,4.70
2022-11-10T11:13:30.234Z,4.80
2022-11-10T11:14:31.224Z,5.50
2022-11-10T11:15:30.441Z,5.40
2022-11-10T11:16:31.122Z,4.80
2022-11-10T11:17:30.207Z,5.00
2022-11-10T11:18:30.194Z,5.20
2022-11-10T11:19:30.238Z,5.20
2022-11-10T11:20:30.219Z,6.00
2022-11-10T11:21:30.376Z,4.90
2022-11-10T11:22:30.139Z,5.30
2022-11-10T11:23:30.113Z,4.70
2022-11-10T11:24:30.098Z,5.40
2022-11-10T11:25:30.220Z,5.50
2022-11-10T11:26:30.224Z,4.50
2022-11-10T11:27:30.135Z,5.30
2022-11-10T11:28:30.081Z,4.50
2022-11-10T11:29:30.069Z,4.80
2022-11-10T11:30:30.225Z,4.70
2022-11-10T11:31:30.040Z,4.70
2022-11-10T11:32:30.533Z,4.70
2022-11-10T11:33:30.039Z,5.30
2022-11-10T11:34:31.730Z,4.90
2022-11-10T11:35:31.735Z,4.20
2022-11-10T11:36:32.174Z,3.80
2022-11-10T11:37:30.216Z,4.70
2022-11-10T11:38:31.685Z,4.80
2022-11-10T11:39:30.023Z,5.00
2022-11-10T11:40:30.017Z,4.50
2022-11-10T11:41:30.674Z,4.50
2022-11-10T11:42:30.593Z,4.30
2022-11-10T11:43:30.925Z,4.40
2022-11-10T11:44:29.880Z,5.00
2022-11-10T11:45:29.902Z,3.90
2022-11-10T11:46:30.823Z,4.30
2022-11-10T11:47:30.599Z,5.00
2022-11-10T11:48:29.990Z,3.70
2022-11-10T11:49:31.789Z,4.40
2022-11-10T11:50:30.986Z,4.70
2022-11-10T11:51:30.672Z,4.00
2022-11-10T11:52:29.947Z,4.80
2022-11-10T11:53:29.806Z,3.90
2022-11-10T11:54:29.762Z,4.40
2022-11-10T11:55:29.782Z,4.20
2022-11-10T11:56:30.908Z,4.60
2022-11-10T11:57:37.111Z,4.40
2022-11-10T11:58:29.820Z,4.10
2022-11-10T11:59:29.975Z,4.40
2022-11-10T12:00:29.864Z,4.50
2022-11-10T12:01:29.814Z,4.50
2022-11-10T12:02:29.864Z,4.80
2022-11-10T12:03:29.733Z,4.60
2022-11-10T12:04:29.648Z,5.00
2022-11-10T12:05:29.736Z,4.10
2022-11-10T12:06:29.831Z,4.50
2022-11-10T12:07:29.681Z,4.90
2022-11-10T12:08:30.249Z,4.80
2022-11-10T12:09:30.410Z,4.40
2022-11-10T12:10:29.698Z,4.70
2022-11-10T12:11:29.629Z,4.30
2022-11-10T12:12:29.593Z,4.30
2022-11-10T12:13:29.635Z,3.30
2022-11-10T12:14:29.565Z,3.90
2022-11-10T12:15:29.706Z,4.20
2022-11-10T12:16:29.525Z,4.30
2022-11-10T12:17:29.549Z,3.80
2022-11-10T12:18:29.508Z,3.70
2022-11-10T12:19:29.551Z,3.80
2022-11-10T12:20:29.524Z,4.70
2022-11-10T12:21:29.554Z,4.30
2022-11-10T12:22:29.480Z,4.30
2022-11-10T12:23:29.498Z,3.90
2022-11-10T12:24:29.581Z,4.40
2022-11-10T12:25:29.605Z,4.10
2022-11-10T12:26:29.506Z,4.10
2022-11-10T12:27:29.460Z,3.50
2022-11-10T12:28:29.423Z,3.90
2022-11-10T12:29:29.387Z,4.00
2022-11-10T12:30:29.388Z,3.60
2022-11-10T12:31:29.344Z,4.10
2022-11-10T12:32:30.169Z,4.40
2022-11-10T12:33:29.371Z,4.10
2022-11-10T12:34:29.404Z,4.50
2022-11-10T12:35:29.333Z,3.80
2022-11-10T12:36:29.370Z,3.80
2022-11-10T12:37:29.277Z,3.50
2022-11-10T12:38:29.275Z,4.00
2022-11-10T12:39:29.352Z,3.90
2022-11-10T12:40:29.984Z,4.00
2022-11-10T12:41:29.218Z,4.50
2022-11-10T12:42:29.225Z,3.20
2022-11-10T12:43:29.206Z,2.80
2022-11-10T12:44:29.190Z,4.20
2022-11-10T12:45:29.341Z,3.60
2022-11-10T12:46:29.229Z,4.30
2022-11-10T12:47:29.304Z,4.10
2022-11-10T12:48:29.278Z,3.70
2022-11-10T12:49:29.294Z,4.00
2022-11-10T12:50:29.331Z,3.80
2022-11-10T12:51:29.258Z,2.90
2022-11-10T12:52:29.196Z,4.00
2022-11-10T12:53:29.736Z,3.50
2022-11-10T12:54:30.128Z,4.20
2022-11-10T12:55:29.110Z,4.00
2022-11-10T12:56:29.724Z,3.90
2022-11-10T12:57:29.136Z,4.10
2022-11-10T12:58:29.122Z,3.60
2022-11-10T12:59:29.038Z,4.70
2022-11-10T13:00:29.220Z,4.00
2022-11-10T13:01:29.108Z,4.10
2022-11-10T13:02:29.113Z,4.00
2022-11-10T13:03:29.098Z,3.60
2022-11-10T13:04:28.967Z,3.90
2022-11-10T13:05:28.979Z,3.40
2022-11-10T13:06:29.817Z,3.90
2022-11-10T13:07:28.995Z,3.70
2022-11-10T13:08:29.154Z,4.20
2022-11-10T13:09:29.017Z,3.70
2022-11-10T13:10:29.056Z,3.70
2022-11-10T13:11:28.965Z,3.50
2022-11-10T13:12:29.078Z,3.30
2022-11-10T13:13:29.847Z,4.10
2022-11-10T13:14:28.986Z,4.00
2022-11-10T13:15:28.981Z,3.80
2022-11-10T13:16:29.039Z,3.90
2022-11-10T13:17:29.223Z,4.00
2022-11-10T13:18:28.919Z,3.40
2022-11-10T13:19:29.222Z,3.50
2022-11-10T13:20:31.513Z,3.50
2022-11-10T13:21:29.665Z,3.60
2022-11-10T13:22:30.711Z,4.40
2022-11-10T13:23:31.917Z,3.40
2022-11-10T13:24:29.844Z,3.50
2022-11-10T13:25:29.800Z,3.70
2022-11-10T13:26:28.903Z,3.70
2022-11-10T13:27:29.678Z,3.40
2022-11-10T13:28:28.778Z,4.40
2022-11-10T13:29:35.071Z,4.00
2022-11-10T13:30:30.440Z,4.30
2022-11-10T13:31:28.785Z,3.80
2022-11-10T13:32:28.811Z,3.60
2022-11-10T13:33:28.747Z,4.10
2022-11-10T13:34:28.820Z,3.10
2022-11-10T13:35:28.893Z,3.60
2022-11-10T13:36:29.039Z,3.90
2022-11-10T13:37:29.000Z,4.10
2022-11-10T13:38:28.617Z,4.60
2022-11-10T13:39:28.633Z,3.50
2022-11-10T13:40:28.727Z,3.70
2022-11-10T13:41:30.314Z,3.70
2022-11-10T13:42:28.969Z,4.00
2022-11-10T13:43:28.590Z,4.60
2022-11-10T13:44:28.597Z,3.40
2022-11-10T13:45:28.717Z,3.30
2022-11-10T13:46:28.724Z,4.00